sensor_id;sensor_type;location;lat;lon;timestamp;P1;durP1;ratioP1;P2;durP2;ratioP2
14377;SDS011;7272;53.668;9.578;2023-05-17T00:02:19;9.57;;;3.40;;
14377;SDS011;7272;53.668;9.578;2023-05-17T00:05:20;12.53;;;4.40;;
14377;SDS011;7272;53.668;9.578;2023-05-17T00:08:21;12.87;;;4.07;;
14377;SDS011;7272;53.668;9.578;2023-05-17T00:11:23;10.23;;;3.70;;
14377;SDS011;7272;53.668;9.578;2023-05-17T00:14:24;10.07;;;3.90;;
14377;SDS011;7272;53.668;9.578;2023-05-17T00:17:26;9.47;;;3.57;;
14377;SDS011;7272;53.668;9.578;2023-05-17T00:20:27;11.67;;;3.97;;
14377;SDS011;7272;53.668;9.578;2023-05-17T00:23:28;11.07;;;4.37;;
14377;SDS011;7272;53.668;9.578;2023-05-17T00:26:29;15.80;;;3.77;;
14377;SDS011;7272;53.668;9.578;2023-05-17T00:29:31;13.67;;;4.17;;
14377;SDS011;7272;53.668;9.578;2023-05-17T00:32:32;11.40;;;4.75;;
14377;SDS011;7272;53.668;9.578;2023-05-17T00:35:33;12.63;;;4.60;;
14377;SDS011;7272;53.668;9.578;2023-05-17T00:38:35;10.40;;;4.30;;
14377;SDS011;7272;53.668;9.578;2023-05-17T00:41:36;11.90;;;4.13;;
14377;SDS011;7272;53.668;9.578;2023-05-17T00:44:38;12.60;;;4.50;;
14377;SDS011;7272;53.668;9.578;2023-05-17T00:47:39;10.70;;;4.23;;
14377;SDS011;7272;53.668;9.578;2023-05-17T00:50:41;8.97;;;3.90;;
14377;SDS011;7272;53.668;9.578;2023-05-17T00:53:43;18.90;;;4.60;;
14377;SDS011;7272;53.668;9.578;2023-05-17T00:56:44;17.40;;;4.10;;
14377;SDS011;7272;53.668;9.578;2023-05-17T00:59:46;18.60;;;5.60;;
14377;SDS011;7272;53.668;9.578;2023-05-17T01:02:47;15.53;;;4.07;;
14377;SDS011;7272;53.668;9.578;2023-05-17T01:05:49;9.37;;;3.40;;
14377;SDS011;7272;53.668;9.578;2023-05-17T01:08:50;10.30;;;3.20;;
14377;SDS011;7272;53.668;9.578;2023-05-17T01:11:53;8.27;;;2.90;;
14377;SDS011;7272;53.668;9.578;2023-05-17T01:15:06;7.93;;;3.47;;
14377;SDS011;7272;53.668;9.578;2023-05-17T01:18:15;9.37;;;2.73;;
14377;SDS011;7272;53.668;9.578;2023-05-17T01:21:25;6.33;;;2.47;;
14377;SDS011;7272;53.668;9.578;2023-05-17T01:24:38;5.70;;;2.93;;
14377;SDS011;7272;53.668;9.578;2023-05-17T01:27:46;7.37;;;2.80;;
14377;SDS011;7272;53.668;9.578;2023-05-17T01:30:50;9.73;;;2.60;;
14377;SDS011;7272;53.668;9.578;2023-05-17T01:33:51;8.90;;;3.03;;
14377;SDS011;7272;53.668;9.578;2023-05-17T01:36:52;7.43;;;3.03;;
14377;SDS011;7272;53.668;9.578;2023-05-17T01:39:54;5.97;;;2.33;;
14377;SDS011;7272;53.668;9.578;2023-05-17T01:42:56;9.17;;;2.43;;
14377;SDS011;7272;53.668;9.578;2023-05-17T01:46:06;6.20;;;2.30;;
14377;SDS011;7272;53.668;9.578;2023-05-17T01:49:17;7.53;;;3.07;;
14377;SDS011;7272;53.668;9.578;2023-05-17T01:52:23;8.10;;;3.00;;
14377;SDS011;7272;53.668;9.578;2023-05-17T01:55:32;6.50;;;2.30;;
14377;SDS011;7272;53.668;9.578;2023-05-17T01:58:43;7.30;;;2.30;;
14377;SDS011;7272;53.668;9.578;2023-05-17T02:01:45;10.00;;;2.47;;
14377;SDS011;7272;53.668;9.578;2023-05-17T02:04:47;6.13;;;2.63;;
14377;SDS011;7272;53.668;9.578;2023-05-17T02:07:50;9.53;;;2.70;;
14377;SDS011;7272;53.668;9.578;2023-05-17T02:10:51;11.43;;;2.40;;
14377;SDS011;7272;53.668;9.578;2023-05-17T02:13:53;7.97;;;2.33;;
14377;SDS011;7272;53.668;9.578;2023-05-17T02:16:55;9.73;;;2.60;;
14377;SDS011;7272;53.668;9.578;2023-05-17T02:19:56;9.60;;;2.90;;
14377;SDS011;7272;53.668;9.578;2023-05-17T02:22:57;6.40;;;2.33;;
14377;SDS011;7272;53.668;9.578;2023-05-17T02:25:59;8.15;;;2.85;;
14377;SDS011;7272;53.668;9.578;2023-05-17T02:29:01;9.00;;;3.20;;
14377;SDS011;7272;53.668;9.578;2023-05-17T02:32:05;6.37;;;2.30;;
14377;SDS011;7272;53.668;9.578;2023-05-17T02:35:07;7.30;;;2.40;;
14377;SDS011;7272;53.668;9.578;2023-05-17T02:38:08;7.10;;;2.57;;
14377;SDS011;7272;53.668;9.578;2023-05-17T02:41:10;7.73;;;2.60;;
14377;SDS011;7272;53.668;9.578;2023-05-17T02:44:11;7.80;;;2.50;;
14377;SDS011;7272;53.668;9.578;2023-05-17T02:47:13;6.17;;;2.83;;
14377;SDS011;7272;53.668;9.578;2023-05-17T02:50:14;8.33;;;2.87;;
14377;SDS011;7272;53.668;9.578;2023-05-17T02:53:15;7.63;;;2.43;;
14377;SDS011;7272;53.668;9.578;2023-05-17T02:56:16;8.93;;;2.23;;
14377;SDS011;7272;53.668;9.578;2023-05-17T02:59:18;8.53;;;3.57;;
14377;SDS011;7272;53.668;9.578;2023-05-17T03:02:20;8.03;;;2.40;;
14377;SDS011;7272;53.668;9.578;2023-05-17T03:05:21;9.20;;;2.88;;
14377;SDS011;7272;53.668;9.578;2023-05-17T03:08:24;8.60;;;2.65;;
14377;SDS011;7272;53.668;9.578;2023-05-17T03:11:26;11.50;;;2.77;;
14377;SDS011;7272;53.668;9.578;2023-05-17T03:14:30;7.83;;;2.23;;
14377;SDS011;7272;53.668;9.578;2023-05-17T03:17:32;5.07;;;2.13;;
14377;SDS011;7272;53.668;9.578;2023-05-17T03:20:34;4.97;;;2.17;;
14377;SDS011;7272;53.668;9.578;2023-05-17T03:23:35;9.17;;;2.27;;
14377;SDS011;7272;53.668;9.578;2023-05-17T03:26:37;5.57;;;2.43;;
14377;SDS011;7272;53.668;9.578;2023-05-17T03:29:40;7.47;;;3.00;;
14377;SDS011;7272;53.668;9.578;2023-05-17T03:32:41;11.33;;;3.27;;
14377;SDS011;7272;53.668;9.578;2023-05-17T03:35:43;13.53;;;3.07;;
14377;SDS011;7272;53.668;9.578;2023-05-17T03:38:46;13.03;;;3.10;;
14377;SDS011;7272;53.668;9.578;2023-05-17T03:41:47;9.83;;;3.13;;
14377;SDS011;7272;53.668;9.578;2023-05-17T03:44:49;8.15;;;3.47;;
14377;SDS011;7272;53.668;9.578;2023-05-17T03:47:51;9.82;;;3.05;;
14377;SDS011;7272;53.668;9.578;2023-05-17T03:50:53;8.03;;;3.03;;
14377;SDS011;7272;53.668;9.578;2023-05-17T03:53:56;9.20;;;2.97;;
14377;SDS011;7272;53.668;9.578;2023-05-17T03:56:59;7.90;;;3.00;;
14377;SDS011;7272;53.668;9.578;2023-05-17T04:00:01;7.77;;;2.87;;
14377;SDS011;7272;53.668;9.578;2023-05-17T04:03:15;9.67;;;3.10;;
14377;SDS011;7272;53.668;9.578;2023-05-17T04:06:17;11.17;;;3.43;;
14377;SDS011;7272;53.668;9.578;2023-05-17T04:09:18;9.50;;;3.57;;
14377;SDS011;7272;53.668;9.578;2023-05-17T04:12:19;11.60;;;3.17;;
14377;SDS011;7272;53.668;9.578;2023-05-17T04:15:22;14.57;;;3.43;;
14377;SDS011;7272;53.668;9.578;2023-05-17T04:18:23;13.67;;;3.30;;
14377;SDS011;7272;53.668;9.578;2023-05-17T04:21:24;8.03;;;2.93;;
14377;SDS011;7272;53.668;9.578;2023-05-17T04:24:26;12.77;;;3.00;;
14377;SDS011;7272;53.668;9.578;2023-05-17T04:27:28;10.47;;;2.60;;
14377;SDS011;7272;53.668;9.578;2023-05-17T04:30:30;11.45;;;3.85;;
14377;SDS011;7272;53.668;9.578;2023-05-17T04:33:31;8.47;;;3.07;;
14377;SDS011;7272;53.668;9.578;2023-05-17T04:36:33;7.20;;;3.00;;
14377;SDS011;7272;53.668;9.578;2023-05-17T04:39:35;9.83;;;2.63;;
14377;SDS011;7272;53.668;9.578;2023-05-17T04:42:37;12.70;;;2.70;;
14377;SDS011;7272;53.668;9.578;2023-05-17T04:45:39;11.70;;;2.83;;
14377;SDS011;7272;53.668;9.578;2023-05-17T04:48:41;6.07;;;3.00;;
14377;SDS011;7272;53.668;9.578;2023-05-17T04:51:43;8.83;;;2.80;;
14377;SDS011;7272;53.668;9.578;2023-05-17T04:54:45;6.07;;;2.50;;
14377;SDS011;7272;53.668;9.578;2023-05-17T04:57:46;6.93;;;2.63;;
14377;SDS011;7272;53.668;9.578;2023-05-17T05:00:50;5.43;;;2.53;;
14377;SDS011;7272;53.668;9.578;2023-05-17T05:03:51;9.80;;;2.80;;
14377;SDS011;7272;53.668;9.578;2023-05-17T05:06:53;8.23;;;2.10;;
14377;SDS011;7272;53.668;9.578;2023-05-17T05:09:54;5.43;;;1.93;;
14377;SDS011;7272;53.668;9.578;2023-05-17T05:12:57;7.57;;;2.97;;
14377;SDS011;7272;53.668;9.578;2023-05-17T05:15:59;4.80;;;2.60;;
14377;SDS011;7272;53.668;9.578;2023-05-17T05:19:00;7.40;;;2.00;;
14377;SDS011;7272;53.668;9.578;2023-05-17T05:22:02;8.30;;;2.70;;
14377;SDS011;7272;53.668;9.578;2023-05-17T05:25:06;8.77;;;2.63;;
14377;SDS011;7272;53.668;9.578;2023-05-17T05:28:08;5.77;;;2.37;;
14377;SDS011;7272;53.668;9.578;2023-05-17T05:31:12;5.83;;;2.20;;
14377;SDS011;7272;53.668;9.578;2023-05-17T05:34:20;8.80;;;2.30;;
14377;SDS011;7272;53.668;9.578;2023-05-17T05:37:22;7.87;;;2.60;;
14377;SDS011;7272;53.668;9.578;2023-05-17T05:40:23;8.57;;;2.53;;
14377;SDS011;7272;53.668;9.578;2023-05-17T05:43:26;6.57;;;2.40;;
14377;SDS011;7272;53.668;9.578;2023-05-17T05:46:28;5.07;;;2.47;;
14377;SDS011;7272;53.668;9.578;2023-05-17T05:49:31;7.45;;;2.50;;
14377;SDS011;7272;53.668;9.578;2023-05-17T05:52:32;7.07;;;2.30;;
14377;SDS011;7272;53.668;9.578;2023-05-17T05:55:39;9.47;;;2.17;;
14377;SDS011;7272;53.668;9.578;2023-05-17T05:58:43;6.00;;;2.47;;
14377;SDS011;7272;53.668;9.578;2023-05-17T06:01:45;9.90;;;2.30;;
14377;SDS011;7272;53.668;9.578;2023-05-17T06:04:47;7.17;;;2.23;;
14377;SDS011;7272;53.668;9.578;2023-05-17T06:07:48;9.97;;;2.43;;
14377;SDS011;7272;53.668;9.578;2023-05-17T06:10:52;6.17;;;2.17;;
14377;SDS011;7272;53.668;9.578;2023-05-17T06:13:54;6.57;;;2.53;;
14377;SDS011;7272;53.668;9.578;2023-05-17T06:16:56;8.33;;;3.40;;
14377;SDS011;7272;53.668;9.578;2023-05-17T06:19:57;6.13;;;2.00;;
14377;SDS011;7272;53.668;9.578;2023-05-17T06:22:58;6.73;;;2.37;;
14377;SDS011;7272;53.668;9.578;2023-05-17T06:25:59;6.20;;;2.43;;
14377;SDS011;7272;53.668;9.578;2023-05-17T06:29:01;8.53;;;2.43;;
14377;SDS011;7272;53.668;9.578;2023-05-17T06:32:04;7.77;;;2.30;;
14377;SDS011;7272;53.668;9.578;2023-05-17T06:35:06;7.13;;;2.13;;
14377;SDS011;7272;53.668;9.578;2023-05-17T06:38:08;8.20;;;3.00;;
14377;SDS011;7272;53.668;9.578;2023-05-17T06:41:09;7.90;;;2.50;;
14377;SDS011;7272;53.668;9.578;2023-05-17T06:44:11;6.70;;;2.33;;
14377;SDS011;7272;53.668;9.578;2023-05-17T06:47:13;7.10;;;2.33;;
14377;SDS011;7272;53.668;9.578;2023-05-17T06:50:14;3.23;;;2.20;;
14377;SDS011;7272;53.668;9.578;2023-05-17T06:53:15;4.03;;;1.93;;
14377;SDS011;7272;53.668;9.578;2023-05-17T06:56:17;7.57;;;2.20;;
14377;SDS011;7272;53.668;9.578;2023-05-17T06:59:18;6.20;;;2.47;;
14377;SDS011;7272;53.668;9.578;2023-05-17T07:02:21;7.07;;;2.30;;
14377;SDS011;7272;53.668;9.578;2023-05-17T07:05:22;8.77;;;2.43;;
14377;SDS011;7272;53.668;9.578;2023-05-17T07:08:23;6.53;;;2.50;;
14377;SDS011;7272;53.668;9.578;2023-05-17T07:11:25;7.93;;;2.00;;
14377;SDS011;7272;53.668;9.578;2023-05-17T07:14:26;8.15;;;2.67;;
14377;SDS011;7272;53.668;9.578;2023-05-17T07:17:28;6.47;;;2.20;;
14377;SDS011;7272;53.668;9.578;2023-05-17T07:20:29;8.70;;;2.92;;
14377;SDS011;7272;53.668;9.578;2023-05-17T07:23:31;6.10;;;2.50;;
14377;SDS011;7272;53.668;9.578;2023-05-17T07:26:32;6.83;;;1.83;;
14377;SDS011;7272;53.668;9.578;2023-05-17T07:29:33;7.40;;;2.53;;
14377;SDS011;7272;53.668;9.578;2023-05-17T07:32:37;5.57;;;2.40;;
14377;SDS011;7272;53.668;9.578;2023-05-17T07:35:38;6.90;;;2.80;;
14377;SDS011;7272;53.668;9.578;2023-05-17T07:38:42;5.53;;;2.30;;
14377;SDS011;7272;53.668;9.578;2023-05-17T07:41:44;5.63;;;2.17;;
14377;SDS011;7272;53.668;9.578;2023-05-17T07:44:45;7.40;;;2.30;;
14377;SDS011;7272;53.668;9.578;2023-05-17T07:47:50;4.93;;;2.13;;
14377;SDS011;7272;53.668;9.578;2023-05-17T07:50:51;8.23;;;2.80;;
14377;SDS011;7272;53.668;9.578;2023-05-17T07:53:53;9.50;;;2.43;;
14377;SDS011;7272;53.668;9.578;2023-05-17T07:56:55;7.25;;;2.80;;
14377;SDS011;7272;53.668;9.578;2023-05-17T07:59:56;7.97;;;3.15;;
14377;SDS011;7272;53.668;9.578;2023-05-17T08:02:58;6.87;;;2.70;;
14377;SDS011;7272;53.668;9.578;2023-05-17T08:06:03;12.37;;;3.53;;
14377;SDS011;7272;53.668;9.578;2023-05-17T08:09:05;8.83;;;2.60;;
14377;SDS011;7272;53.668;9.578;2023-05-17T08:12:06;8.47;;;2.50;;
14377;SDS011;7272;53.668;9.578;2023-05-17T08:15:08;6.53;;;2.37;;
14377;SDS011;7272;53.668;9.578;2023-05-17T08:18:10;6.80;;;2.43;;
14377;SDS011;7272;53.668;9.578;2023-05-17T08:21:11;9.70;;;2.83;;
14377;SDS011;7272;53.668;9.578;2023-05-17T08:24:13;6.33;;;2.73;;
14377;SDS011;7272;53.668;9.578;2023-05-17T08:27:14;12.30;;;3.10;;
14377;SDS011;7272;53.668;9.578;2023-05-17T08:30:16;5.97;;;2.60;;
14377;SDS011;7272;53.668;9.578;2023-05-17T08:33:18;7.23;;;2.40;;
14377;SDS011;7272;53.668;9.578;2023-05-17T08:36:21;7.50;;;2.85;;
14377;SDS011;7272;53.668;9.578;2023-05-17T08:39:23;6.13;;;2.50;;
14377;SDS011;7272;53.668;9.578;2023-05-17T08:42:24;9.50;;;2.50;;
14377;SDS011;7272;53.668;9.578;2023-05-17T08:45:25;5.37;;;1.83;;
14377;SDS011;7272;53.668;9.578;2023-05-17T08:48:33;8.17;;;2.90;;
14377;SDS011;7272;53.668;9.578;2023-05-17T08:51:40;4.43;;;2.43;;
14377;SDS011;7272;53.668;9.578;2023-05-17T08:54:42;6.40;;;2.47;;
14377;SDS011;7272;53.668;9.578;2023-05-17T08:57:43;5.77;;;2.60;;
14377;SDS011;7272;53.668;9.578;2023-05-17T09:00:46;7.53;;;2.27;;
14377;SDS011;7272;53.668;9.578;2023-05-17T09:03:49;10.10;;;2.47;;
14377;SDS011;7272;53.668;9.578;2023-05-17T09:06:50;6.37;;;2.67;;
14377;SDS011;7272;53.668;9.578;2023-05-17T09:09:52;6.53;;;2.50;;
14377;SDS011;7272;53.668;9.578;2023-05-17T09:12:54;7.07;;;2.73;;
14377;SDS011;7272;53.668;9.578;2023-05-17T09:15:55;8.52;;;3.33;;
14377;SDS011;7272;53.668;9.578;2023-05-17T09:18:57;8.38;;;3.10;;
14377;SDS011;7272;53.668;9.578;2023-05-17T09:21:59;6.03;;;2.70;;
14377;SDS011;7272;53.668;9.578;2023-05-17T09:25:08;6.93;;;2.73;;
14377;SDS011;7272;53.668;9.578;2023-05-17T09:28:25;7.60;;;3.10;;
14377;SDS011;7272;53.668;9.578;2023-05-17T09:31:28;7.23;;;2.70;;
14377;SDS011;7272;53.668;9.578;2023-05-17T09:34:30;5.20;;;2.27;;
14377;SDS011;7272;53.668;9.578;2023-05-17T09:37:32;5.67;;;2.80;;
14377;SDS011;7272;53.668;9.578;2023-05-17T09:40:39;8.43;;;2.63;;
14377;SDS011;7272;53.668;9.578;2023-05-17T09:43:41;6.17;;;1.90;;
14377;SDS011;7272;53.668;9.578;2023-05-17T09:46:43;8.57;;;2.47;;
14377;SDS011;7272;53.668;9.578;2023-05-17T09:49:46;6.53;;;2.13;;
14377;SDS011;7272;53.668;9.578;2023-05-17T09:52:50;7.18;;;2.63;;
14377;SDS011;7272;53.668;9.578;2023-05-17T09:55:52;7.72;;;3.05;;
14377;SDS011;7272;53.668;9.578;2023-05-17T09:58:56;7.07;;;2.60;;
14377;SDS011;7272;53.668;9.578;2023-05-17T10:02:01;5.03;;;1.87;;
14377;SDS011;7272;53.668;9.578;2023-05-17T10:05:08;8.60;;;2.47;;
14377;SDS011;7272;53.668;9.578;2023-05-17T10:08:11;5.63;;;2.10;;
14377;SDS011;7272;53.668;9.578;2023-05-17T10:11:15;6.47;;;2.63;;
14377;SDS011;7272;53.668;9.578;2023-05-17T10:14:22;5.53;;;2.43;;
14377;SDS011;7272;53.668;9.578;2023-05-17T10:17:27;5.37;;;2.10;;
14377;SDS011;7272;53.668;9.578;2023-05-17T10:20:29;7.47;;;2.37;;
14377;SDS011;7272;53.668;9.578;2023-05-17T10:23:30;5.60;;;1.90;;
14377;SDS011;7272;53.668;9.578;2023-05-17T10:26:33;5.00;;;1.67;;
14377;SDS011;7272;53.668;9.578;2023-05-17T10:29:36;3.97;;;1.60;;
14377;SDS011;7272;53.668;9.578;2023-05-17T10:32:38;3.63;;;1.83;;
14377;SDS011;7272;53.668;9.578;2023-05-17T10:35:42;4.20;;;1.90;;
14377;SDS011;7272;53.668;9.578;2023-05-17T10:38:46;4.37;;;1.93;;
14377;SDS011;7272;53.668;9.578;2023-05-17T10:41:49;4.47;;;2.00;;
14377;SDS011;7272;53.668;9.578;2023-05-17T10:44:55;2.90;;;1.30;;
14377;SDS011;7272;53.668;9.578;2023-05-17T10:47:57;4.17;;;1.50;;
14377;SDS011;7272;53.668;9.578;2023-05-17T10:51:05;3.30;;;1.60;;
14377;SDS011;7272;53.668;9.578;2023-05-17T10:54:09;4.57;;;2.03;;
14377;SDS011;7272;53.668;9.578;2023-05-17T10:57:18;5.13;;;1.93;;
14377;SDS011;7272;53.668;9.578;2023-05-17T11:00:23;5.03;;;2.10;;
14377;SDS011;7272;53.668;9.578;2023-05-17T11:03:28;5.63;;;2.43;;
14377;SDS011;7272;53.668;9.578;2023-05-17T11:06:34;4.03;;;1.90;;
14377;SDS011;7272;53.668;9.578;2023-05-17T11:09:37;7.37;;;2.43;;
14377;SDS011;7272;53.668;9.578;2023-05-17T11:12:41;5.67;;;2.43;;
14377;SDS011;7272;53.668;9.578;2023-05-17T11:16:01;3.83;;;2.00;;
14377;SDS011;7272;53.668;9.578;2023-05-17T11:19:07;7.03;;;2.53;;
14377;SDS011;7272;53.668;9.578;2023-05-17T11:22:10;4.40;;;2.00;;
14377;SDS011;7272;53.668;9.578;2023-05-17T11:25:11;5.40;;;2.20;;
14377;SDS011;7272;53.668;9.578;2023-05-17T11:28:17;5.30;;;1.70;;
14377;SDS011;7272;53.668;9.578;2023-05-17T11:31:29;4.87;;;2.23;;
14377;SDS011;7272;53.668;9.578;2023-05-17T11:34:32;7.20;;;2.60;;
14377;SDS011;7272;53.668;9.578;2023-05-17T11:37:33;5.18;;;2.50;;
14377;SDS011;7272;53.668;9.578;2023-05-17T11:40:34;5.93;;;2.07;;
14377;SDS011;7272;53.668;9.578;2023-05-17T11:43:40;4.13;;;1.83;;
14377;SDS011;7272;53.668;9.578;2023-05-17T11:46:45;3.40;;;2.03;;
14377;SDS011;7272;53.668;9.578;2023-05-17T11:49:46;5.77;;;1.93;;
14377;SDS011;7272;53.668;9.578;2023-05-17T11:52:50;5.17;;;1.83;;
14377;SDS011;7272;53.668;9.578;2023-05-17T11:55:57;6.33;;;2.30;;
14377;SDS011;7272;53.668;9.578;2023-05-17T11:59:03;5.93;;;2.00;;
14377;SDS011;7272;53.668;9.578;2023-05-17T12:02:04;2.97;;;1.70;;
14377;SDS011;7272;53.668;9.578;2023-05-17T12:05:07;5.05;;;2.60;;
14377;SDS011;7272;53.668;9.578;2023-05-17T12:08:08;6.72;;;2.47;;
14377;SDS011;7272;53.668;9.578;2023-05-17T12:11:10;5.73;;;1.67;;
14377;SDS011;7272;53.668;9.578;2023-05-17T12:14:15;5.43;;;2.10;;
14377;SDS011;7272;53.668;9.578;2023-05-17T12:17:19;5.00;;;2.00;;
14377;SDS011;7272;53.668;9.578;2023-05-17T12:20:24;3.33;;;2.00;;
14377;SDS011;7272;53.668;9.578;2023-05-17T12:23:27;3.07;;;1.80;;
14377;SDS011;7272;53.668;9.578;2023-05-17T12:26:30;3.20;;;1.50;;
14377;SDS011;7272;53.668;9.578;2023-05-17T12:29:32;3.03;;;1.50;;
14377;SDS011;7272;53.668;9.578;2023-05-17T12:32:33;5.87;;;1.93;;
14377;SDS011;7272;53.668;9.578;2023-05-17T12:35:34;5.55;;;2.47;;
14377;SDS011;7272;53.668;9.578;2023-05-17T12:38:37;4.23;;;2.03;;
14377;SDS011;7272;53.668;9.578;2023-05-17T12:41:40;3.67;;;1.60;;
14377;SDS011;7272;53.668;9.578;2023-05-17T12:44:45;4.93;;;2.03;;
14377;SDS011;7272;53.668;9.578;2023-05-17T12:47:46;5.30;;;2.07;;
14377;SDS011;7272;53.668;9.578;2023-05-17T12:50:50;6.73;;;2.53;;
14377;SDS011;7272;53.668;9.578;2023-05-17T12:53:52;5.60;;;2.00;;
14377;SDS011;7272;53.668;9.578;2023-05-17T12:56:55;4.77;;;1.70;;
14377;SDS011;7272;53.668;9.578;2023-05-17T12:59:57;6.32;;;2.03;;
14377;SDS011;7272;53.668;9.578;2023-05-17T13:03:00;4.10;;;1.80;;
14377;SDS011;7272;53.668;9.578;2023-05-17T13:06:08;3.97;;;1.90;;
14377;SDS011;7272;53.668;9.578;2023-05-17T13:09:10;4.37;;;1.63;;
14377;SDS011;7272;53.668;9.578;2023-05-17T13:12:16;5.50;;;1.77;;
14377;SDS011;7272;53.668;9.578;2023-05-17T13:15:20;3.00;;;1.77;;
14377;SDS011;7272;53.668;9.578;2023-05-17T13:18:25;5.17;;;1.90;;
14377;SDS011;7272;53.668;9.578;2023-05-17T13:21:27;5.93;;;1.87;;
14377;SDS011;7272;53.668;9.578;2023-05-17T13:24:29;4.63;;;2.27;;
14377;SDS011;7272;53.668;9.578;2023-05-17T13:27:31;5.70;;;2.15;;
14377;SDS011;7272;53.668;9.578;2023-05-17T13:30:33;6.25;;;2.50;;
14377;SDS011;7272;53.668;9.578;2023-05-17T13:33:34;4.43;;;2.30;;
14377;SDS011;7272;53.668;9.578;2023-05-17T13:36:37;4.47;;;2.97;;
14377;SDS011;7272;53.668;9.578;2023-05-17T13:39:39;4.70;;;1.90;;
14377;SDS011;7272;53.668;9.578;2023-05-17T13:42:41;6.07;;;2.37;;
14377;SDS011;7272;53.668;9.578;2023-05-17T13:45:43;7.03;;;2.53;;
14377;SDS011;7272;53.668;9.578;2023-05-17T13:48:44;7.90;;;2.13;;
14377;SDS011;7272;53.668;9.578;2023-05-17T13:51:46;5.33;;;2.20;;
14377;SDS011;7272;53.668;9.578;2023-05-17T13:54:47;5.03;;;1.73;;
14377;SDS011;7272;53.668;9.578;2023-05-17T13:57:49;6.32;;;2.55;;
14377;SDS011;7272;53.668;9.578;2023-05-17T14:00:51;7.40;;;2.33;;
14377;SDS011;7272;53.668;9.578;2023-05-17T14:03:52;4.73;;;1.67;;
14377;SDS011;7272;53.668;9.578;2023-05-17T14:06:54;4.53;;;1.83;;
14377;SDS011;7272;53.668;9.578;2023-05-17T14:09:56;11.70;;;2.47;;
14377;SDS011;7272;53.668;9.578;2023-05-17T14:12:57;5.90;;;1.73;;
14377;SDS011;7272;53.668;9.578;2023-05-17T14:15:59;4.93;;;1.57;;
14377;SDS011;7272;53.668;9.578;2023-05-17T14:19:00;7.10;;;2.20;;
14377;SDS011;7272;53.668;9.578;2023-05-17T14:22:02;7.50;;;2.37;;
14377;SDS011;7272;53.668;9.578;2023-05-17T14:25:03;6.82;;;2.28;;
14377;SDS011;7272;53.668;9.578;2023-05-17T14:28:05;3.97;;;1.80;;
14377;SDS011;7272;53.668;9.578;2023-05-17T14:31:08;4.23;;;1.80;;
14377;SDS011;7272;53.668;9.578;2023-05-17T14:34:09;6.73;;;2.30;;
14377;SDS011;7272;53.668;9.578;2023-05-17T14:37:11;5.57;;;1.73;;
14377;SDS011;7272;53.668;9.578;2023-05-17T14:40:14;6.03;;;2.03;;
14377;SDS011;7272;53.668;9.578;2023-05-17T14:43:15;4.73;;;2.20;;
14377;SDS011;7272;53.668;9.578;2023-05-17T14:46:17;6.93;;;2.37;;
14377;SDS011;7272;53.668;9.578;2023-05-17T14:49:18;6.63;;;2.10;;
14377;SDS011;7272;53.668;9.578;2023-05-17T14:52:20;7.07;;;2.15;;
14377;SDS011;7272;53.668;9.578;2023-05-17T14:55:21;5.23;;;2.13;;
14377;SDS011;7272;53.668;9.578;2023-05-17T14:58:25;5.97;;;2.30;;
14377;SDS011;7272;53.668;9.578;2023-05-17T15:01:28;5.90;;;2.23;;
14377;SDS011;7272;53.668;9.578;2023-05-17T15:04:29;10.17;;;2.33;;
14377;SDS011;7272;53.668;9.578;2023-05-17T15:07:30;5.67;;;2.13;;
14377;SDS011;7272;53.668;9.578;2023-05-17T15:10:32;6.33;;;1.87;;
14377;SDS011;7272;53.668;9.578;2023-05-17T15:13:34;6.00;;;2.40;;
14377;SDS011;7272;53.668;9.578;2023-05-17T15:16:36;7.30;;;2.30;;
14377;SDS011;7272;53.668;9.578;2023-05-17T15:19:38;4.10;;;2.23;;
14377;SDS011;7272;53.668;9.578;2023-05-17T15:22:40;4.40;;;1.87;;
14377;SDS011;7272;53.668;9.578;2023-05-17T15:25:41;6.27;;;2.00;;
14377;SDS011;7272;53.668;9.578;2023-05-17T15:28:43;4.60;;;1.80;;
14377;SDS011;7272;53.668;9.578;2023-05-17T15:31:45;3.20;;;1.57;;
14377;SDS011;7272;53.668;9.578;2023-05-17T15:34:46;5.20;;;2.07;;
14377;SDS011;7272;53.668;9.578;2023-05-17T15:37:47;6.00;;;1.97;;
14377;SDS011;7272;53.668;9.578;2023-05-17T15:40:51;5.23;;;2.00;;
14377;SDS011;7272;53.668;9.578;2023-05-17T15:44:01;3.95;;;1.90;;
14377;SDS011;7272;53.668;9.578;2023-05-17T15:47:03;2.97;;;1.60;;
14377;SDS011;7272;53.668;9.578;2023-05-17T15:50:05;4.07;;;1.57;;
14377;SDS011;7272;53.668;9.578;2023-05-17T15:53:09;5.20;;;1.70;;
14377;SDS011;7272;53.668;9.578;2023-05-17T15:56:13;3.87;;;1.63;;
14377;SDS011;7272;53.668;9.578;2023-05-17T15:59:16;4.60;;;1.90;;
14377;SDS011;7272;53.668;9.578;2023-05-17T16:02:20;3.00;;;1.70;;
14377;SDS011;7272;53.668;9.578;2023-05-17T16:05:23;5.30;;;2.13;;
14377;SDS011;7272;53.668;9.578;2023-05-17T16:08:24;4.53;;;1.60;;
14377;SDS011;7272;53.668;9.578;2023-05-17T16:11:26;5.27;;;2.23;;
14377;SDS011;7272;53.668;9.578;2023-05-17T16:14:27;4.07;;;1.70;;
14377;SDS011;7272;53.668;9.578;2023-05-17T16:17:29;6.23;;;2.30;;
14377;SDS011;7272;53.668;9.578;2023-05-17T16:20:30;4.03;;;2.00;;
14377;SDS011;7272;53.668;9.578;2023-05-17T16:23:33;3.70;;;1.63;;
14377;SDS011;7272;53.668;9.578;2023-05-17T16:26:34;6.63;;;1.90;;
14377;SDS011;7272;53.668;9.578;2023-05-17T16:29:37;10.17;;;2.70;;
14377;SDS011;7272;53.668;9.578;2023-05-17T16:32:39;6.55;;;2.30;;
14377;SDS011;7272;53.668;9.578;2023-05-17T16:35:41;5.43;;;2.28;;
14377;SDS011;7272;53.668;9.578;2023-05-17T16:38:46;4.50;;;2.07;;
14377;SDS011;7272;53.668;9.578;2023-05-17T16:41:47;5.80;;;1.90;;
14377;SDS011;7272;53.668;9.578;2023-05-17T16:44:50;4.97;;;1.90;;
14377;SDS011;7272;53.668;9.578;2023-05-17T16:47:52;5.83;;;2.50;;
14377;SDS011;7272;53.668;9.578;2023-05-17T16:50:53;5.90;;;2.30;;
14377;SDS011;7272;53.668;9.578;2023-05-17T16:53:55;5.43;;;2.13;;
14377;SDS011;7272;53.668;9.578;2023-05-17T16:56:56;4.97;;;2.53;;
14377;SDS011;7272;53.668;9.578;2023-05-17T16:59:58;5.25;;;2.30;;
14377;SDS011;7272;53.668;9.578;2023-05-17T17:03:00;3.97;;;2.10;;
14377;SDS011;7272;53.668;9.578;2023-05-17T17:06:01;5.97;;;2.13;;
14377;SDS011;7272;53.668;9.578;2023-05-17T17:09:03;3.93;;;1.97;;
14377;SDS011;7272;53.668;9.578;2023-05-17T17:12:07;4.33;;;1.70;;
14377;SDS011;7272;53.668;9.578;2023-05-17T17:15:08;5.17;;;1.77;;
14377;SDS011;7272;53.668;9.578;2023-05-17T17:18:11;5.97;;;2.13;;
14377;SDS011;7272;53.668;9.578;2023-05-17T17:21:15;3.73;;;1.80;;
14377;SDS011;7272;53.668;9.578;2023-05-17T17:24:18;5.57;;;2.00;;
14377;SDS011;7272;53.668;9.578;2023-05-17T17:27:19;3.90;;;1.50;;
14377;SDS011;7272;53.668;9.578;2023-05-17T17:30:21;3.35;;;1.95;;
14377;SDS011;7272;53.668;9.578;2023-05-17T17:33:23;4.97;;;1.67;;
14377;SDS011;7272;53.668;9.578;2023-05-17T17:36:24;4.40;;;2.13;;
14377;SDS011;7272;53.668;9.578;2023-05-17T17:39:29;4.83;;;1.70;;
14377;SDS011;7272;53.668;9.578;2023-05-17T17:42:32;5.03;;;1.77;;
14377;SDS011;7272;53.668;9.578;2023-05-17T17:45:33;5.10;;;1.80;;
14377;SDS011;7272;53.668;9.578;2023-05-17T17:48:36;5.93;;;1.83;;
14377;SDS011;7272;53.668;9.578;2023-05-17T17:51:38;5.30;;;1.80;;
14377;SDS011;7272;53.668;9.578;2023-05-17T17:54:39;5.17;;;2.20;;
14377;SDS011;7272;53.668;9.578;2023-05-17T17:57:41;4.10;;;1.90;;
14377;SDS011;7272;53.668;9.578;2023-05-17T18:00:42;4.75;;;1.90;;
14377;SDS011;7272;53.668;9.578;2023-05-17T18:03:44;5.55;;;2.20;;
14377;SDS011;7272;53.668;9.578;2023-05-17T18:06:45;5.37;;;1.77;;
14377;SDS011;7272;53.668;9.578;2023-05-17T18:09:47;5.70;;;1.97;;
14377;SDS011;7272;53.668;9.578;2023-05-17T18:12:48;5.73;;;1.93;;
14377;SDS011;7272;53.668;9.578;2023-05-17T18:15:49;8.10;;;2.40;;
14377;SDS011;7272;53.668;9.578;2023-05-17T18:18:51;5.63;;;1.80;;
14377;SDS011;7272;53.668;9.578;2023-05-17T18:21:53;8.30;;;2.50;;
14377;SDS011;7272;53.668;9.578;2023-05-17T18:24:54;6.47;;;2.03;;
14377;SDS011;7272;53.668;9.578;2023-05-17T18:27:58;7.03;;;2.20;;
14377;SDS011;7272;53.668;9.578;2023-05-17T18:30:59;6.82;;;2.42;;
14377;SDS011;7272;53.668;9.578;2023-05-17T18:34:02;5.95;;;2.50;;
14377;SDS011;7272;53.668;9.578;2023-05-17T18:37:03;9.73;;;2.50;;